sensor_id;sensor_type;location;lat;lon;timestamp;P1;durP1;ratioP1;P2;durP2;ratioP2
3781;SDS011;6881;49.962;7.718;2023-08-20T00:02:07;14.20;;;11.43;;
3781;SDS011;6881;49.962;7.718;2023-08-20T00:04:33;13.47;;;12.10;;
3781;SDS011;6881;49.962;7.718;2023-08-20T00:07:02;15.40;;;12.20;;
3781;SDS011;6881;49.962;7.718;2023-08-20T00:09:27;15.70;;;11.70;;
3781;SDS011;6881;49.962;7.718;2023-08-20T00:11:53;13.50;;;12.20;;
3781;SDS011;6881;49.962;7.718;2023-08-20T00:14:18;13.10;;;11.90;;
3781;SDS011;6881;49.962;7.718;2023-08-20T00:16:43;11.50;;;10.00;;
3781;SDS011;6881;49.962;7.718;2023-08-20T00:19:09;12.67;;;11.40;;
3781;SDS011;6881;49.962;7.718;2023-08-20T00:21:38;13.20;;;11.90;;
3781;SDS011;6881;49.962;7.718;2023-08-20T00:24:06;15.90;;;11.77;;
3781;SDS011;6881;49.962;7.718;2023-08-20T00:26:31;10.77;;;9.67;;
3781;SDS011;6881;49.962;7.718;2023-08-20T00:28:57;10.50;;;9.50;;
3781;SDS011;6881;49.962;7.718;2023-08-20T00:31:22;11.40;;;10.27;;
3781;SDS011;6881;49.962;7.718;2023-08-20T00:33:47;9.80;;;8.53;;
3781;SDS011;6881;49.962;7.718;2023-08-20T00:36:13;12.90;;;10.03;;
3781;SDS011;6881;49.962;7.718;2023-08-20T00:38:38;9.00;;;8.10;;
3781;SDS011;6881;49.962;7.718;2023-08-20T00:41:03;10.03;;;8.07;;
3781;SDS011;6881;49.962;7.718;2023-08-20T00:43:29;9.40;;;8.50;;
3781;SDS011;6881;49.962;7.718;2023-08-20T00:45:54;9.20;;;7.73;;
3781;SDS011;6881;49.962;7.718;2023-08-20T00:48:19;8.83;;;7.83;;
3781;SDS011;6881;49.962;7.718;2023-08-20T00:50:45;9.33;;;7.30;;
3781;SDS011;6881;49.962;7.718;2023-08-20T00:53:10;10.60;;;7.67;;
3781;SDS011;6881;49.962;7.718;2023-08-20T00:55:37;8.30;;;7.50;;
3781;SDS011;6881;49.962;7.718;2023-08-20T00:58:02;12.17;;;7.40;;
3781;SDS011;6881;49.962;7.718;2023-08-20T01:00:27;8.20;;;7.40;;
3781;SDS011;6881;49.962;7.718;2023-08-20T01:02:53;10.67;;;8.67;;
3781;SDS011;6881;49.962;7.718;2023-08-20T01:05:18;14.43;;;7.87;;
3781;SDS011;6881;49.962;7.718;2023-08-20T01:13:23;7.80;;;7.00;;
3781;SDS011;6881;49.962;7.718;2023-08-20T01:15:48;8.90;;;6.87;;
3781;SDS011;6881;49.962;7.718;2023-08-20T01:18:14;8.00;;;7.13;;
3781;SDS011;6881;49.962;7.718;2023-08-20T01:20:40;8.60;;;6.47;;
3781;SDS011;6881;49.962;7.718;2023-08-20T01:28:33;8.83;;;6.30;;
3781;SDS011;6881;49.962;7.718;2023-08-20T01:30:59;7.97;;;5.07;;
3781;SDS011;6881;49.962;7.718;2023-08-20T01:33:28;6.90;;;5.93;;
3781;SDS011;6881;49.962;7.718;2023-08-20T01:35:54;7.73;;;5.60;;
3781;SDS011;6881;49.962;7.718;2023-08-20T01:38:20;7.83;;;5.00;;
3781;SDS011;6881;49.962;7.718;2023-08-20T01:40:45;7.43;;;5.10;;
3781;SDS011;6881;49.962;7.718;2023-08-20T01:43:11;7.23;;;6.30;;
3781;SDS011;6881;49.962;7.718;2023-08-20T01:45:36;8.77;;;5.60;;
3781;SDS011;6881;49.962;7.718;2023-08-20T01:48:01;7.80;;;6.13;;
3781;SDS011;6881;49.962;7.718;2023-08-20T01:50:28;6.70;;;5.50;;
3781;SDS011;6881;49.962;7.718;2023-08-20T01:52:53;8.90;;;5.20;;
3781;SDS011;6881;49.962;7.718;2023-08-20T01:55:19;6.33;;;5.70;;
3781;SDS011;6881;49.962;7.718;2023-08-20T01:57:44;11.77;;;5.53;;
3781;SDS011;6881;49.962;7.718;2023-08-20T02:00:10;6.60;;;4.97;;
3781;SDS011;6881;49.962;7.718;2023-08-20T02:02:35;6.07;;;5.40;;
3781;SDS011;6881;49.962;7.718;2023-08-20T02:05:01;7.30;;;4.90;;
3781;SDS011;6881;49.962;7.718;2023-08-20T02:07:26;7.20;;;5.73;;
3781;SDS011;6881;49.962;7.718;2023-08-20T02:09:51;9.20;;;5.57;;
3781;SDS011;6881;49.962;7.718;2023-08-20T02:12:17;7.30;;;5.37;;
3781;SDS011;6881;49.962;7.718;2023-08-20T02:14:42;6.60;;;5.30;;
3781;SDS011;6881;49.962;7.718;2023-08-20T02:17:08;10.63;;;5.40;;
3781;SDS011;6881;49.962;7.718;2023-08-20T02:19:33;5.33;;;4.83;;
3781;SDS011;6881;49.962;7.718;2023-08-20T02:21:58;5.13;;;4.57;;
3781;SDS011;6881;49.962;7.718;2023-08-20T02:24:24;8.97;;;4.80;;
3781;SDS011;6881;49.962;7.718;2023-08-20T02:26:49;4.63;;;4.23;;
3781;SDS011;6881;49.962;7.718;2023-08-20T02:29:14;6.87;;;4.40;;
3781;SDS011;6881;49.962;7.718;2023-08-20T02:31:39;7.00;;;5.50;;
3781;SDS011;6881;49.962;7.718;2023-08-20T02:34:05;6.60;;;5.10;;
3781;SDS011;6881;49.962;7.718;2023-08-20T02:36:30;5.17;;;4.53;;
3781;SDS011;6881;49.962;7.718;2023-08-20T02:38:55;5.30;;;4.80;;
3781;SDS011;6881;49.962;7.718;2023-08-20T02:41:21;8.67;;;4.93;;
3781;SDS011;6881;49.962;7.718;2023-08-20T02:43:46;7.07;;;5.37;;
3781;SDS011;6881;49.962;7.718;2023-08-20T02:46:11;7.90;;;6.23;;
3781;SDS011;6881;49.962;7.718;2023-08-20T02:48:37;6.97;;;5.67;;
3781;SDS011;6881;49.962;7.718;2023-08-20T02:51:02;8.27;;;5.40;;
3781;SDS011;6881;49.962;7.718;2023-08-20T02:53:27;6.30;;;5.70;;
3781;SDS011;6881;49.962;7.718;2023-08-20T02:55:53;7.50;;;4.97;;
3781;SDS011;6881;49.962;7.718;2023-08-20T02:58:18;9.00;;;5.13;;
3781;SDS011;6881;49.962;7.718;2023-08-20T03:00:43;8.80;;;5.00;;
3781;SDS011;6881;49.962;7.718;2023-08-20T03:03:10;6.50;;;5.60;;
3781;SDS011;6881;49.962;7.718;2023-08-20T03:05:35;6.03;;;5.17;;
3781;SDS011;6881;49.962;7.718;2023-08-20T03:08:01;7.30;;;5.37;;
3781;SDS011;6881;49.962;7.718;2023-08-20T03:10:28;5.83;;;5.33;;
3781;SDS011;6881;49.962;7.718;2023-08-20T03:12:54;6.03;;;5.17;;
3781;SDS011;6881;49.962;7.718;2023-08-20T03:15:19;7.53;;;5.90;;
3781;SDS011;6881;49.962;7.718;2023-08-20T03:17:44;6.87;;;5.50;;
3781;SDS011;6881;49.962;7.718;2023-08-20T03:20:10;6.67;;;5.43;;
3781;SDS011;6881;49.962;7.718;2023-08-20T03:22:36;5.60;;;5.03;;
3781;SDS011;6881;49.962;7.718;2023-08-20T03:25:02;7.40;;;5.63;;
3781;SDS011;6881;49.962;7.718;2023-08-20T03:27:27;8.30;;;5.90;;
3781;SDS011;6881;49.962;7.718;2023-08-20T03:29:52;9.57;;;6.57;;
3781;SDS011;6881;49.962;7.718;2023-08-20T03:32:18;10.93;;;6.33;;
3781;SDS011;6881;49.962;7.718;2023-08-20T03:34:43;9.30;;;7.03;;
3781;SDS011;6881;49.962;7.718;2023-08-20T03:37:08;8.97;;;6.80;;
3781;SDS011;6881;49.962;7.718;2023-08-20T03:39:34;11.23;;;6.63;;
3781;SDS011;6881;49.962;7.718;2023-08-20T03:41:59;7.27;;;6.53;;
3781;SDS011;6881;49.962;7.718;2023-08-20T03:44:24;5.97;;;5.40;;
3781;SDS011;6881;49.962;7.718;2023-08-20T03:46:50;8.53;;;6.47;;
3781;SDS011;6881;49.962;7.718;2023-08-20T03:49:15;5.67;;;5.10;;
3781;SDS011;6881;49.962;7.718;2023-08-20T03:51:40;9.87;;;6.00;;
3781;SDS011;6881;49.962;7.718;2023-08-20T03:54:07;11.03;;;6.37;;
3781;SDS011;6881;49.962;7.718;2023-08-20T03:56:33;7.07;;;5.77;;
3781;SDS011;6881;49.962;7.718;2023-08-20T03:58:58;7.70;;;6.20;;
3781;SDS011;6881;49.962;7.718;2023-08-20T04:01:23;6.73;;;6.07;;
3781;SDS011;6881;49.962;7.718;2023-08-20T04:03:48;7.37;;;5.70;;
3781;SDS011;6881;49.962;7.718;2023-08-20T04:06:14;7.47;;;5.63;;
3781;SDS011;6881;49.962;7.718;2023-08-20T04:08:40;7.00;;;5.67;;
3781;SDS011;6881;49.962;7.718;2023-08-20T04:11:05;9.30;;;5.30;;
3781;SDS011;6881;49.962;7.718;2023-08-20T04:13:31;6.20;;;5.10;;
3781;SDS011;6881;49.962;7.718;2023-08-20T04:15:56;5.60;;;4.80;;
3781;SDS011;6881;49.962;7.718;2023-08-20T04:18:21;7.13;;;6.33;;
3781;SDS011;6881;49.962;7.718;2023-08-20T04:20:47;6.67;;;5.17;;
3781;SDS011;6881;49.962;7.718;2023-08-20T04:23:14;6.70;;;5.43;;
3781;SDS011;6881;49.962;7.718;2023-08-20T04:25:39;9.67;;;6.00;;
3781;SDS011;6881;49.962;7.718;2023-08-20T04:28:05;6.60;;;5.50;;
3781;SDS011;6881;49.962;7.718;2023-08-20T04:30:30;9.00;;;5.80;;
3781;SDS011;6881;49.962;7.718;2023-08-20T04:32:55;6.60;;;5.53;;
3781;SDS011;6881;49.962;7.718;2023-08-20T04:35:21;6.27;;;5.63;;
3781;SDS011;6881;49.962;7.718;2023-08-20T04:37:46;8.00;;;6.10;;
3781;SDS011;6881;49.962;7.718;2023-08-20T04:40:11;12.43;;;5.83;;
3781;SDS011;6881;49.962;7.718;2023-08-20T04:42:37;6.47;;;5.73;;
3781;SDS011;6881;49.962;7.718;2023-08-20T04:45:03;7.40;;;6.27;;
3781;SDS011;6881;49.962;7.718;2023-08-20T04:47:28;9.00;;;6.10;;
3781;SDS011;6881;49.962;7.718;2023-08-20T04:49:54;7.73;;;6.73;;
3781;SDS011;6881;49.962;7.718;2023-08-20T04:52:19;7.90;;;6.00;;
3781;SDS011;6881;49.962;7.718;2023-08-20T04:54:45;7.70;;;6.00;;
3781;SDS011;6881;49.962;7.718;2023-08-20T04:57:11;6.90;;;5.80;;
3781;SDS011;6881;49.962;7.718;2023-08-20T04:59:36;10.40;;;6.37;;
3781;SDS011;6881;49.962;7.718;2023-08-20T05:02:02;9.00;;;6.40;;
3781;SDS011;6881;49.962;7.718;2023-08-20T05:04:27;5.67;;;5.07;;
3781;SDS011;6881;49.962;7.718;2023-08-20T05:06:52;5.90;;;4.80;;
3781;SDS011;6881;49.962;7.718;2023-08-20T05:09:17;5.63;;;5.07;;
3781;SDS011;6881;49.962;7.718;2023-08-20T05:11:43;5.30;;;4.80;;
3781;SDS011;6881;49.962;7.718;2023-08-20T05:14:08;7.00;;;4.80;;
3781;SDS011;6881;49.962;7.718;2023-08-20T05:16:33;5.27;;;4.77;;
3781;SDS011;6881;49.962;7.718;2023-08-20T05:18:59;5.43;;;4.83;;
3781;SDS011;6881;49.962;7.718;2023-08-20T05:21:24;4.80;;;4.30;;
3781;SDS011;6881;49.962;7.718;2023-08-20T05:23:49;6.23;;;4.80;;
3781;SDS011;6881;49.962;7.718;2023-08-20T05:26:15;5.33;;;4.23;;
3781;SDS011;6881;49.962;7.718;2023-08-20T05:28:40;5.37;;;4.87;;
3781;SDS011;6881;49.962;7.718;2023-08-20T05:31:05;7.33;;;5.60;;
3781;SDS011;6881;49.962;7.718;2023-08-20T05:33:31;6.47;;;5.63;;
3781;SDS011;6881;49.962;7.718;2023-08-20T05:35:56;5.70;;;5.20;;
3781;SDS011;6881;49.962;7.718;2023-08-20T05:38:21;5.80;;;5.30;;
3781;SDS011;6881;49.962;7.718;2023-08-20T05:40:47;7.00;;;6.30;;
3781;SDS011;6881;49.962;7.718;2023-08-20T05:43:12;10.57;;;5.70;;
3781;SDS011;6881;49.962;7.718;2023-08-20T05:45:37;6.60;;;5.80;;
3781;SDS011;6881;49.962;7.718;2023-08-20T05:48:03;7.40;;;4.33;;
3781;SDS011;6881;49.962;7.718;2023-08-20T05:50:28;5.63;;;5.13;;
3781;SDS011;6881;49.962;7.718;2023-08-20T05:52:53;6.87;;;4.50;;
3781;SDS011;6881;49.962;7.718;2023-08-20T05:55:19;5.50;;;5.00;;
3781;SDS011;6881;49.962;7.718;2023-08-20T05:57:44;5.47;;;4.47;;
3781;SDS011;6881;49.962;7.718;2023-08-20T06:00:10;5.10;;;4.60;;
3781;SDS011;6881;49.962;7.718;2023-08-20T06:02:36;5.57;;;4.67;;
3781;SDS011;6881;49.962;7.718;2023-08-20T06:05:02;6.20;;;5.70;;
3781;SDS011;6881;49.962;7.718;2023-08-20T06:07:29;7.10;;;6.40;;
3781;SDS011;6881;49.962;7.718;2023-08-20T06:09:55;6.87;;;5.90;;
3781;SDS011;6881;49.962;7.718;2023-08-20T06:12:21;6.77;;;6.13;;
3781;SDS011;6881;49.962;7.718;2023-08-20T06:14:47;6.70;;;6.10;;
3781;SDS011;6881;49.962;7.718;2023-08-20T06:17:12;6.77;;;5.83;;
3781;SDS011;6881;49.962;7.718;2023-08-20T06:19:37;6.87;;;6.00;;
3781;SDS011;6881;49.962;7.718;2023-08-20T06:22:03;6.70;;;6.13;;
3781;SDS011;6881;49.962;7.718;2023-08-20T06:24:28;6.17;;;5.67;;
3781;SDS011;6881;49.962;7.718;2023-08-20T06:26:53;7.70;;;7.00;;
3781;SDS011;6881;49.962;7.718;2023-08-20T06:29:19;6.73;;;6.13;;
3781;SDS011;6881;49.962;7.718;2023-08-20T06:31:46;7.40;;;6.70;;
3781;SDS011;6881;49.962;7.718;2023-08-20T06:34:11;7.13;;;6.43;;
3781;SDS011;6881;49.962;7.718;2023-08-20T06:36:37;7.70;;;6.33;;
3781;SDS011;6881;49.962;7.718;2023-08-20T06:39:02;9.53;;;8.43;;
3781;SDS011;6881;49.962;7.718;2023-08-20T06:41:28;8.20;;;7.33;;
3781;SDS011;6881;49.962;7.718;2023-08-20T06:43:53;8.50;;;7.70;;
3781;SDS011;6881;49.962;7.718;2023-08-20T06:46:19;9.90;;;9.00;;
3781;SDS011;6881;49.962;7.718;2023-08-20T06:48:44;9.10;;;8.27;;
3781;SDS011;6881;49.962;7.718;2023-08-20T06:51:13;9.03;;;8.13;;
3781;SDS011;6881;49.962;7.718;2023-08-20T06:53:39;9.13;;;8.10;;
3781;SDS011;6881;49.962;7.718;2023-08-20T06:56:05;9.37;;;8.00;;
3781;SDS011;6881;49.962;7.718;2023-08-20T06:58:31;11.43;;;10.00;;
3781;SDS011;6881;49.962;7.718;2023-08-20T07:00:56;9.70;;;8.50;;
3781;SDS011;6881;49.962;7.718;2023-08-20T07:03:31;9.63;;;8.70;;
3781;SDS011;6881;49.962;7.718;2023-08-20T07:06:07;12.13;;;9.70;;
3781;SDS011;6881;49.962;7.718;2023-08-20T07:08:34;10.57;;;9.57;;
3781;SDS011;6881;49.962;7.718;2023-08-20T07:11:00;10.90;;;9.80;;
3781;SDS011;6881;49.962;7.718;2023-08-20T07:13:25;11.97;;;10.27;;
3781;SDS011;6881;49.962;7.718;2023-08-20T07:15:50;11.50;;;10.30;;
3781;SDS011;6881;49.962;7.718;2023-08-20T07:18:16;12.90;;;10.30;;
3781;SDS011;6881;49.962;7.718;2023-08-20T07:20:41;10.10;;;9.10;;
3781;SDS011;6881;49.962;7.718;2023-08-20T07:23:07;10.50;;;9.60;;
3781;SDS011;6881;49.962;7.718;2023-08-20T07:25:33;11.70;;;10.50;;
3781;SDS011;6881;49.962;7.718;2023-08-20T07:27:59;10.57;;;9.47;;
3781;SDS011;6881;49.962;7.718;2023-08-20T07:30:24;10.93;;;9.67;;
3781;SDS011;6881;49.962;7.718;2023-08-20T07:32:50;9.60;;;8.70;;
3781;SDS011;6881;49.962;7.718;2023-08-20T07:35:15;10.53;;;9.30;;
3781;SDS011;6881;49.962;7.718;2023-08-20T07:37:41;10.00;;;9.00;;
3781;SDS011;6881;49.962;7.718;2023-08-20T07:40:06;8.90;;;8.10;;
3781;SDS011;6881;49.962;7.718;2023-08-20T07:42:32;9.83;;;8.93;;
3781;SDS011;6881;49.962;7.718;2023-08-20T07:44:57;9.53;;;8.63;;
3781;SDS011;6881;49.962;7.718;2023-08-20T07:47:23;9.57;;;8.67;;
3781;SDS011;6881;49.962;7.718;2023-08-20T07:49:48;12.20;;;9.70;;
3781;SDS011;6881;49.962;7.718;2023-08-20T07:52:13;8.93;;;7.93;;
3781;SDS011;6881;49.962;7.718;2023-08-20T07:54:38;10.10;;;9.10;;
3781;SDS011;6881;49.962;7.718;2023-08-20T07:57:04;9.47;;;8.67;;
3781;SDS011;6881;49.962;7.718;2023-08-20T07:59:29;10.93;;;8.27;;
3781;SDS011;6881;49.962;7.718;2023-08-20T08:01:54;9.47;;;8.67;;
3781;SDS011;6881;49.962;7.718;2023-08-20T08:04:20;10.57;;;8.63;;
3781;SDS011;6881;49.962;7.718;2023-08-20T08:06:46;8.63;;;7.83;;
3781;SDS011;6881;49.962;7.718;2023-08-20T08:09:26;10.00;;;9.10;;
3781;SDS011;6881;49.962;7.718;2023-08-20T08:11:53;9.70;;;8.80;;
3781;SDS011;6881;49.962;7.718;2023-08-20T08:14:18;9.43;;;8.60;;
3781;SDS011;6881;49.962;7.718;2023-08-20T08:16:47;9.03;;;8.13;;
3781;SDS011;6881;49.962;7.718;2023-08-20T08:19:12;9.60;;;8.77;;
3781;SDS011;6881;49.962;7.718;2023-08-20T08:21:38;10.57;;;8.40;;
3781;SDS011;6881;49.962;7.718;2023-08-20T08:24:03;8.30;;;7.47;;
3781;SDS011;6881;49.962;7.718;2023-08-20T08:26:29;11.07;;;7.93;;
3781;SDS011;6881;49.962;7.718;2023-08-20T08:28:54;7.22;;;6.60;;
3781;SDS011;6881;49.962;7.718;2023-08-20T08:31:20;9.00;;;8.10;;
3781;SDS011;6881;49.962;7.718;2023-08-20T08:33:45;7.80;;;7.05;;
3781;SDS011;6881;49.962;7.718;2023-08-20T08:36:10;8.20;;;7.55;;
3781;SDS011;6881;49.962;7.718;2023-08-20T08:38:36;8.35;;;7.57;;
3781;SDS011;6881;49.962;7.718;2023-08-20T08:41:02;9.02;;;8.20;;
3781;SDS011;6881;49.962;7.718;2023-08-20T08:43:28;7.85;;;7.05;;
3781;SDS011;6881;49.962;7.718;2023-08-20T08:45:54;7.60;;;6.95;;
3781;SDS011;6881;49.962;7.718;2023-08-20T08:48:20;8.43;;;7.72;;
3781;SDS011;6881;49.962;7.718;2023-08-20T08:50:46;8.15;;;7.35;;
3781;SDS011;6881;49.962;7.718;2023-08-20T08:53:12;8.38;;;7.68;;
3781;SDS011;6881;49.962;7.718;2023-08-20T08:55:38;8.05;;;7.28;;
3781;SDS011;6881;49.962;7.718;2023-08-20T08:58:03;7.72;;;7.10;;
3781;SDS011;6881;49.962;7.718;2023-08-20T09:00:28;8.18;;;7.38;;
3781;SDS011;6881;49.962;7.718;2023-08-20T09:02:56;7.65;;;7.05;;
3781;SDS011;6881;49.962;7.718;2023-08-20T09:05:21;6.90;;;6.30;;
3781;SDS011;6881;49.962;7.718;2023-08-20T09:07:47;7.75;;;7.07;;
3781;SDS011;6881;49.962;7.718;2023-08-20T09:10:12;7.22;;;6.63;;
3781;SDS011;6881;49.962;7.718;2023-08-20T09:12:37;7.05;;;5.45;;
3781;SDS011;6881;49.962;7.718;2023-08-20T09:15:03;7.05;;;6.43;;
3781;SDS011;6881;49.962;7.718;2023-08-20T09:17:35;6.97;;;5.18;;
3781;SDS011;6881;49.962;7.718;2023-08-20T09:20:00;5.53;;;5.03;;
3781;SDS011;6881;49.962;7.718;2023-08-20T09:22:26;5.70;;;5.30;;
3781;SDS011;6881;49.962;7.718;2023-08-20T09:24:55;6.82;;;6.22;;
3781;SDS011;6881;49.962;7.718;2023-08-20T09:27:21;6.40;;;5.78;;
3781;SDS011;6881;49.962;7.718;2023-08-20T09:32:17;5.70;;;5.20;;
3781;SDS011;6881;49.962;7.718;2023-08-20T09:34:44;6.57;;;5.93;;
3781;SDS011;6881;49.962;7.718;2023-08-20T09:37:13;5.28;;;4.80;;
3781;SDS011;6881;49.962;7.718;2023-08-20T09:39:39;7.00;;;5.32;;
3781;SDS011;6881;49.962;7.718;2023-08-20T09:42:05;5.82;;;5.32;;
3781;SDS011;6881;49.962;7.718;2023-08-20T09:44:34;6.78;;;6.18;;
3781;SDS011;6881;49.962;7.718;2023-08-20T09:47:01;5.20;;;4.80;;
3781;SDS011;6881;49.962;7.718;2023-08-20T09:49:29;6.10;;;5.60;;
3781;SDS011;6881;49.962;7.718;2023-08-20T09:51:56;5.85;;;5.35;;
3781;SDS011;6881;49.962;7.718;2023-08-20T09:54:31;5.35;;;4.95;;
3781;SDS011;6881;49.962;7.718;2023-08-20T09:57:02;5.10;;;4.70;;
3781;SDS011;6881;49.962;7.718;2023-08-20T09:59:32;5.00;;;4.65;;
3781;SDS011;6881;49.962;7.718;2023-08-20T10:02:00;5.30;;;4.90;;
3781;SDS011;6881;49.962;7.718;2023-08-20T10:04:26;5.13;;;4.63;;
3781;SDS011;6881;49.962;7.718;2023-08-20T10:06:51;4.88;;;4.32;;
3781;SDS011;6881;49.962;7.718;2023-08-20T10:09:17;4.95;;;4.55;;
3781;SDS011;6881;49.962;7.718;2023-08-20T10:11:43;4.93;;;4.53;;
3781;SDS011;6881;49.962;7.718;2023-08-20T10:14:08;4.65;;;4.25;;
3781;SDS011;6881;49.962;7.718;2023-08-20T10:16:33;5.38;;;4.55;;
3781;SDS011;6881;49.962;7.718;2023-08-20T10:19:03;5.00;;;4.57;;
3781;SDS011;6881;49.962;7.718;2023-08-20T10:21:29;4.57;;;4.18;;
3781;SDS011;6881;49.962;7.718;2023-08-20T10:23:54;4.85;;;4.45;;
3781;SDS011;6881;49.962;7.718;2023-08-20T10:26:19;7.10;;;4.40;;
3781;SDS011;6881;49.962;7.718;2023-08-20T10:28:46;6.97;;;5.00;;
3781;SDS011;6881;49.962;7.718;2023-08-20T10:31:12;5.43;;;5.03;;
3781;SDS011;6881;49.962;7.718;2023-08-20T10:36:19;5.55;;;4.13;;
3781;SDS011;6881;49.962;7.718;2023-08-20T10:38:56;4.63;;;3.92;;
3781;SDS011;6881;49.962;7.718;2023-08-20T10:41:26;4.70;;;4.30;;
3781;SDS011;6881;49.962;7.718;2023-08-20T10:43:57;4.68;;;4.18;;
3781;SDS011;6881;49.962;7.718;2023-08-20T10:46:23;5.28;;;4.78;;
3781;SDS011;6881;49.962;7.718;2023-08-20T10:48:53;5.20;;;4.70;;
3781;SDS011;6881;49.962;7.718;2023-08-20T10:51:36;3.90;;;3.53;;
3781;SDS011;6881;49.962;7.718;2023-08-20T10:54:06;6.72;;;3.95;;
3781;SDS011;6881;49.962;7.718;2023-08-20T10:56:45;5.30;;;4.40;;
3781;SDS011;6881;49.962;7.718;2023-08-20T10:59:21;5.40;;;3.65;;
3781;SDS011;6881;49.962;7.718;2023-08-20T11:01:51;4.25;;;3.85;;
3781;SDS011;6881;49.962;7.718;2023-08-20T11:04:17;4.55;;;4.18;;
3781;SDS011;6881;49.962;7.718;2023-08-20T11:06:49;6.28;;;4.70;;
3781;SDS011;6881;49.962;7.718;2023-08-20T11:09:15;4.70;;;4.30;;
3781;SDS011;6881;49.962;7.718;2023-08-20T11:11:41;4.57;;;4.18;;
3781;SDS011;6881;49.962;7.718;2023-08-20T11:14:08;5.10;;;4.70;;
3781;SDS011;6881;49.962;7.718;2023-08-20T11:16:38;5.60;;;5.10;;
3781;SDS011;6881;49.962;7.718;2023-08-20T11:19:03;5.33;;;4.83;;
3781;SDS011;6881;49.962;7.718;2023-08-20T11:21:38;4.73;;;3.77;;
3781;SDS011;6881;49.962;7.718;2023-08-20T11:24:05;5.63;;;5.13;;
3781;SDS011;6881;49.962;7.718;2023-08-20T11:26:34;6.07;;;4.87;;
3781;SDS011;6881;49.962;7.718;2023-08-20T11:29:00;5.53;;;5.00;;
3781;SDS011;6881;49.962;7.718;2023-08-20T11:31:26;6.40;;;4.80;;
3781;SDS011;6881;49.962;7.718;2023-08-20T11:33:51;6.53;;;5.43;;
3781;SDS011;6881;49.962;7.718;2023-08-20T11:36:17;5.60;;;5.10;;
3781;SDS011;6881;49.962;7.718;2023-08-20T11:38:48;5.10;;;4.70;;
3781;SDS011;6881;49.962;7.718;2023-08-20T11:41:15;4.97;;;4.57;;
3781;SDS011;6881;49.962;7.718;2023-08-20T11:43:41;6.03;;;5.00;;
3781;SDS011;6881;49.962;7.718;2023-08-20T11:46:12;5.67;;;5.10;;
3781;SDS011;6881;49.962;7.718;2023-08-20T11:48:38;6.00;;;5.40;;
3781;SDS011;6881;49.962;7.718;2023-08-20T11:51:03;5.50;;;4.73;;
3781;SDS011;6881;49.962;7.718;2023-08-20T11:53:29;7.47;;;5.50;;
3781;SDS011;6881;49.962;7.718;2023-08-20T11:55:54;5.90;;;5.30;;
3781;SDS011;6881;49.962;7.718;2023-08-20T11:58:19;7.07;;;5.70;;
3781;SDS011;6881;49.962;7.718;2023-08-20T12:00:48;5.60;;;5.00;;
3781;SDS011;6881;49.962;7.718;2023-08-20T12:03:15;5.27;;;4.87;;
3781;SDS011;6881;49.962;7.718;2023-08-20T12:05:42;4.93;;;4.43;;
3781;SDS011;6881;49.962;7.718;2023-08-20T12:08:08;5.20;;;4.70;;
3781;SDS011;6881;49.962;7.718;2023-08-20T12:10:33;5.77;;;5.00;;
3781;SDS011;6881;49.962;7.718;2023-08-20T12:12:59;6.10;;;5.03;;
3781;SDS011;6881;49.962;7.718;2023-08-20T12:15:24;5.40;;;4.80;;
3781;SDS011;6881;49.962;7.718;2023-08-20T12:20:29;5.20;;;4.80;;
3781;SDS011;6881;49.962;7.718;2023-08-20T12:23:00;5.73;;;4.73;;
3781;SDS011;6881;49.962;7.718;2023-08-20T12:25:30;5.63;;;5.00;;
3781;SDS011;6881;49.962;7.718;2023-08-20T12:27:58;5.97;;;5.50;;
3781;SDS011;6881;49.962;7.718;2023-08-20T12:30:23;5.77;;;5.27;;
3781;SDS011;6881;49.962;7.718;2023-08-20T12:32:49;5.50;;;5.10;;
3781;SDS011;6881;49.962;7.718;2023-08-20T12:35:14;5.90;;;5.30;;
3781;SDS011;6881;49.962;7.718;2023-08-20T12:37:39;7.13;;;5.30;;
3781;SDS011;6881;49.962;7.718;2023-08-20T12:40:05;5.30;;;4.87;;
3781;SDS011;6881;49.962;7.718;2023-08-20T12:42:35;6.20;;;4.90;;
3781;SDS011;6881;49.962;7.718;2023-08-20T12:45:01;7.97;;;5.87;;
3781;SDS011;6881;49.962;7.718;2023-08-20T12:47:27;6.38;;;5.15;;
3781;SDS011;6881;49.962;7.718;2023-08-20T12:49:53;5.93;;;5.32;;
3781;SDS011;6881;49.962;7.718;2023-08-20T12:52:18;5.45;;;4.95;;
3781;SDS011;6881;49.962;7.718;2023-08-20T12:54:43;5.47;;;4.97;;
3781;SDS011;6881;49.962;7.718;2023-08-20T12:57:09;6.38;;;5.78;;
3781;SDS011;6881;49.962;7.718;2023-08-20T12:59:34;5.78;;;5.28;;
3781;SDS011;6881;49.962;7.718;2023-08-20T13:01:59;6.63;;;5.93;;
3781;SDS011;6881;49.962;7.718;2023-08-20T13:04:25;5.82;;;5.32;;
3781;SDS011;6881;49.962;7.718;2023-08-20T13:06:50;7.65;;;5.68;;
3781;SDS011;6881;49.962;7.718;2023-08-20T13:09:16;5.40;;;4.90;;
3781;SDS011;6881;49.962;7.718;2023-08-20T13:11:42;5.90;;;5.38;;
3781;SDS011;6881;49.962;7.718;2023-08-20T13:14:08;6.15;;;5.65;;
3781;SDS011;6881;49.962;7.718;2023-08-20T13:16:33;5.30;;;4.80;;
3781;SDS011;6881;49.962;7.718;2023-08-20T13:18:59;6.47;;;5.65;;
3781;SDS011;6881;49.962;7.718;2023-08-20T13:21:24;5.35;;;4.53;;
3781;SDS011;6881;49.962;7.718;2023-08-20T13:23:50;6.15;;;5.55;;
3781;SDS011;6881;49.962;7.718;2023-08-20T13:26:15;5.65;;;5.05;;
3781;SDS011;6881;49.962;7.718;2023-08-20T13:28:40;5.85;;;5.35;;
3781;SDS011;6881;49.962;7.718;2023-08-20T13:31:05;5.68;;;5.20;;
3781;SDS011;6881;49.962;7.718;2023-08-20T13:33:31;5.63;;;5.22;;
3781;SDS011;6881;49.962;7.718;2023-08-20T13:35:56;6.07;;;5.28;;
3781;SDS011;6881;49.962;7.718;2023-08-20T13:38:22;5.75;;;5.25;;
3781;SDS011;6881;49.962;7.718;2023-08-20T13:40:47;10.60;;;5.65;;
3781;SDS011;6881;49.962;7.718;2023-08-20T13:43:13;6.40;;;5.88;;
3781;SDS011;6881;49.962;7.718;2023-08-20T13:45:39;12.07;;;5.38;;
3781;SDS011;6881;49.962;7.718;2023-08-20T13:48:04;6.43;;;5.32;;
3781;SDS011;6881;49.962;7.718;2023-08-20T13:50:30;4.82;;;4.40;;
3781;SDS011;6881;49.962;7.718;2023-08-20T13:52:55;5.38;;;4.88;;
3781;SDS011;6881;49.962;7.718;2023-08-20T13:55:21;5.72;;;5.15;;
3781;SDS011;6881;49.962;7.718;2023-08-20T13:57:46;5.67;;;5.17;;
3781;SDS011;6881;49.962;7.718;2023-08-20T14:00:12;7.87;;;5.87;;
3781;SDS011;6881;49.962;7.718;2023-08-20T14:02:37;5.87;;;5.27;;
3781;SDS011;6881;49.962;7.718;2023-08-20T14:05:03;7.77;;;5.17;;
3781;SDS011;6881;49.962;7.718;2023-08-20T14:07:29;5.33;;;4.90;;
3781;SDS011;6881;49.962;7.718;2023-08-20T14:09:55;5.90;;;5.30;;
3781;SDS011;6881;49.962;7.718;2023-08-20T14:12:20;8.33;;;4.70;;
3781;SDS011;6881;49.962;7.718;2023-08-20T14:14:45;6.03;;;5.53;;
3781;SDS011;6881;49.962;7.718;2023-08-20T14:17:11;5.77;;;5.10;;
3781;SDS011;6881;49.962;7.718;2023-08-20T14:19:36;5.40;;;4.93;;
3781;SDS011;6881;49.962;7.718;2023-08-20T14:22:01;6.80;;;5.50;;
3781;SDS011;6881;49.962;7.718;2023-08-20T14:24:27;7.20;;;5.77;;
3781;SDS011;6881;49.962;7.718;2023-08-20T14:26:52;5.87;;;5.10;;
3781;SDS011;6881;49.962;7.718;2023-08-20T14:29:17;5.83;;;5.10;;
3781;SDS011;6881;49.962;7.718;2023-08-20T14:31:43;7.77;;;5.27;;
3781;SDS011;6881;49.962;7.718;2023-08-20T14:34:08;5.43;;;4.97;;
3781;SDS011;6881;49.962;7.718;2023-08-20T14:36:33;5.63;;;5.10;;
3781;SDS011;6881;49.962;7.718;2023-08-20T14:38:59;6.10;;;5.60;;
3781;SDS011;6881;49.962;7.718;2023-08-20T14:41:24;5.67;;;5.10;;
3781;SDS011;6881;49.962;7.718;2023-08-20T14:43:49;5.17;;;4.70;;
3781;SDS011;6881;49.962;7.718;2023-08-20T14:46:14;5.63;;;5.13;;
3781;SDS011;6881;49.962;7.718;2023-08-20T14:48:40;5.00;;;4.50;;
3781;SDS011;6881;49.962;7.718;2023-08-20T14:51:07;5.37;;;4.80;;
3781;SDS011;6881;49.962;7.718;2023-08-20T14:53:33;5.33;;;4.83;;
3781;SDS011;6881;49.962;7.718;2023-08-20T14:55:58;5.63;;;5.13;;
3781;SDS011;6881;49.962;7.718;2023-08-20T14:58:23;6.30;;;5.33;;
3781;SDS011;6881;49.962;7.718;2023-08-20T15:00:49;5.23;;;4.40;;
3781;SDS011;6881;49.962;7.718;2023-08-20T15:03:14;5.20;;;4.70;;
3781;SDS011;6881;49.962;7.718;2023-08-20T15:05:39;5.83;;;5.33;;
3781;SDS011;6881;49.962;7.718;2023-08-20T15:08:05;6.17;;;5.57;;
3781;SDS011;6881;49.962;7.718;2023-08-20T15:10:30;5.53;;;4.70;;
3781;SDS011;6881;49.962;7.718;2023-08-20T15:12:55;5.70;;;5.20;;
3781;SDS011;6881;49.962;7.718;2023-08-20T15:15:20;6.10;;;5.50;;
3781;SDS011;6881;49.962;7.718;2023-08-20T15:17:46;5.30;;;4.80;;
3781;SDS011;6881;49.962;7.718;2023-08-20T15:20:11;7.13;;;6.43;;
3781;SDS011;6881;49.962;7.718;2023-08-20T15:22:37;6.53;;;5.90;;
3781;SDS011;6881;49.962;7.718;2023-08-20T15:25:02;5.77;;;5.17;;